createdAt,value
2018-12-12T00:02:18.223Z,10.20
2018-12-12T00:04:47.128Z,9.57
2018-12-12T00:07:15.975Z,10.67
2018-12-12T00:09:44.835Z,10.90
2018-12-12T00:12:13.680Z,10.53
2018-12-12T00:14:42.581Z,9.53
2018-12-12T00:17:11.427Z,10.60
2018-12-12T00:19:40.331Z,9.40
2018-12-12T00:22:09.193Z,9.93
2018-12-12T00:24:38.073Z,11.87
2018-12-12T00:27:06.964Z,10.53
2018-12-12T00:29:35.896Z,10.27
2018-12-12T00:32:04.768Z,10.60
2018-12-12T00:34:33.686Z,10.90
2018-12-12T00:37:02.711Z,11.17
2018-12-12T00:39:31.599Z,10.10
2018-12-12T00:42:00.473Z,11.60
2018-12-12T00:44:29.365Z,11.37
2018-12-12T00:46:58.675Z,11.97
2018-12-12T00:49:27.565Z,11.07
2018-12-12T00:51:56.748Z,12.23
2018-12-12T00:54:26.111Z,12.90
2018-12-12T00:56:55.030Z,13.90
2018-12-12T00:59:23.991Z,12.33
2018-12-12T01:01:52.856Z,12.67
2018-12-12T01:04:21.720Z,15.30
2018-12-12T01:06:50.616Z,15.50
2018-12-12T01:09:19.543Z,15.20
2018-12-12T01:11:53.809Z,15.17
2018-12-12T01:14:22.678Z,14.73
2018-12-12T01:16:51.554Z,14.57
2018-12-12T01:19:20.453Z,13.47
2018-12-12T01:21:49.366Z,12.77
2018-12-12T01:24:18.265Z,13.63
2018-12-12T01:26:47.156Z,14.07
2018-12-12T01:29:16.077Z,15.77
2018-12-12T01:31:45.250Z,15.00
2018-12-12T01:34:14.138Z,15.97
2018-12-12T01:36:43.041Z,13.17
2018-12-12T01:39:11.959Z,15.43
2018-12-12T01:41:41.251Z,16.47
2018-12-12T01:44:10.149Z,15.60
2018-12-12T01:46:39.024Z,15.87
2018-12-12T01:49:08.463Z,14.97
2018-12-12T01:51:37.306Z,15.87
2018-12-12T01:54:06.196Z,14.53
2018-12-12T01:56:35.109Z,15.87
2018-12-12T01:59:04.516Z,15.73
2018-12-12T02:01:33.429Z,14.17
2018-12-12T02:04:02.299Z,15.70
2018-12-12T02:06:31.187Z,15.13
2018-12-12T02:09:00.079Z,15.80
2018-12-12T02:11:29.051Z,15.53
2018-12-12T02:13:57.941Z,17.40
2018-12-12T02:16:26.827Z,16.00
2018-12-12T02:18:56.239Z,17.57
2018-12-12T02:21:25.229Z,15.60
2018-12-12T02:23:54.326Z,17.37
2018-12-12T02:26:23.238Z,14.93
2018-12-12T02:28:52.137Z,14.23
2018-12-12T02:31:21.001Z,17.17
2018-12-12T02:33:49.894Z,16.23
2018-12-12T02:36:19.068Z,15.97
2018-12-12T02:38:47.952Z,17.20
2018-12-12T02:41:16.868Z,14.70
2018-12-12T02:43:45.756Z,15.07
2018-12-12T02:46:14.640Z,14.57
2018-12-12T02:48:43.952Z,16.50
2018-12-12T02:51:12.836Z,16.03
2018-12-12T02:53:41.725Z,17.23
2018-12-12T02:56:10.922Z,18.67
2018-12-12T02:58:39.806Z,19.73
2018-12-12T03:01:08.703Z,17.47
2018-12-12T03:03:37.588Z,17.87
2018-12-12T03:06:06.483Z,18.17
2018-12-12T03:08:35.379Z,16.10
2018-12-12T03:11:04.264Z,16.27
2018-12-12T03:13:33.587Z,17.07
2018-12-12T03:16:02.807Z,17.40
2018-12-12T03:18:31.818Z,13.63
2018-12-12T03:21:00.713Z,16.10
2018-12-12T03:23:29.563Z,16.77
2018-12-12T03:25:58.910Z,15.10
2018-12-12T03:28:27.796Z,13.90
2018-12-12T03:30:56.691Z,15.43
2018-12-12T03:33:25.878Z,16.33
2018-12-12T03:35:54.819Z,17.00
2018-12-12T03:38:23.706Z,15.70
2018-12-12T03:40:53.019Z,15.30
2018-12-12T03:43:21.894Z,13.40
2018-12-12T03:45:50.771Z,15.07
2018-12-12T03:48:21.788Z,13.63
2018-12-12T03:50:51.007Z,17.90
2018-12-12T03:53:19.861Z,16.87
2018-12-12T03:55:48.999Z,13.73
2018-12-12T03:58:18.655Z,15.73
2018-12-12T04:00:47.496Z,15.97
2018-12-12T04:03:16.352Z,15.73
2018-12-12T04:05:46.022Z,17.47
2018-12-12T04:08:14.880Z,14.93
2018-12-12T04:10:43.767Z,18.50
2018-12-12T04:13:12.794Z,17.70
2018-12-12T04:15:41.680Z,18.43
2018-12-12T04:18:10.527Z,17.27
2018-12-12T04:20:39.365Z,18.33
2018-12-12T04:23:08.459Z,16.90
2018-12-12T04:25:37.710Z,16.40
2018-12-12T04:28:06.544Z,17.57
2018-12-12T04:30:35.386Z,16.93
2018-12-12T04:33:04.635Z,17.93
2018-12-12T04:35:33.448Z,18.73
2018-12-12T04:38:02.300Z,20.97
2018-12-12T04:40:31.451Z,17.30
2018-12-12T04:43:00.304Z,19.37
2018-12-12T04:45:29.133Z,18.53
2018-12-12T04:47:58.300Z,18.40
2018-12-12T04:50:27.384Z,18.20
2018-12-12T04:52:56.383Z,18.90
2018-12-12T04:55:25.267Z,18.53
2018-12-12T04:57:54.607Z,20.17
2018-12-12T05:00:23.462Z,20.40
2018-12-12T05:02:52.931Z,20.07
2018-12-12T05:05:21.866Z,19.40
2018-12-12T05:07:50.927Z,19.13
2018-12-12T05:10:19.774Z,19.00
2018-12-12T05:12:48.616Z,18.10
2018-12-12T05:15:17.454Z,19.90
2018-12-12T05:17:46.310Z,17.53
2018-12-12T05:20:15.391Z,19.20
2018-12-12T05:22:44.228Z,18.13
2018-12-12T05:25:13.084Z,16.37
2018-12-12T05:27:41.901Z,15.73
2018-12-12T05:30:10.752Z,17.83
2018-12-12T05:32:39.580Z,18.37
2018-12-12T05:35:08.731Z,16.93
2018-12-12T05:37:37.570Z,17.43
2018-12-12T05:40:07.544Z,16.53
2018-12-12T05:42:36.630Z,17.80
2018-12-12T05:45:06.592Z,16.33
2018-12-12T05:47:35.416Z,17.07
2018-12-12T05:50:04.871Z,16.23
2018-12-12T05:52:33.753Z,15.30
2018-12-12T05:55:02.835Z,15.33
2018-12-12T05:57:31.664Z,15.87
2018-12-12T06:00:00.543Z,17.67
2018-12-12T06:02:29.454Z,17.83
2018-12-12T06:04:58.316Z,18.67
2018-12-12T06:07:27.193Z,17.43
2018-12-12T06:09:56.263Z,18.50
2018-12-12T06:12:25.130Z,17.03
2018-12-12T06:14:54.235Z,17.17
2018-12-12T06:17:23.163Z,17.60
2018-12-12T06:19:52.499Z,15.43
2018-12-12T06:22:21.839Z,17.10
2018-12-12T06:24:51.094Z,15.77
2018-12-12T06:27:19.979Z,15.87
2018-12-12T06:29:48.841Z,15.47
2018-12-12T06:32:17.719Z,14.83
2018-12-12T06:34:46.655Z,14.80
2018-12-12T06:37:15.608Z,14.87
2018-12-12T06:39:44.559Z,15.90
2018-12-12T06:42:13.443Z,14.47
2018-12-12T06:44:42.388Z,15.07
2018-12-12T06:47:11.327Z,15.30
2018-12-12T06:49:40.234Z,15.03
2018-12-12T06:52:09.819Z,14.23
2018-12-12T06:54:38.757Z,14.33
2018-12-12T06:57:08.276Z,15.70
2018-12-12T06:59:37.274Z,15.07
2018-12-12T07:02:06.612Z,15.73
2018-12-12T07:04:35.507Z,15.77
2018-12-12T07:07:06.054Z,14.53
2018-12-12T07:09:34.892Z,14.93
2018-12-12T07:12:03.984Z,15.20
2018-12-12T07:14:32.768Z,15.03
2018-12-12T07:17:01.663Z,14.47
2018-12-12T07:19:31.169Z,15.57
2018-12-12T07:22:00.221Z,14.13
2018-12-12T07:24:29.285Z,14.30
2018-12-12T07:26:58.148Z,14.87
2018-12-12T07:29:27.378Z,14.40
2018-12-12T07:31:56.643Z,14.70
2018-12-12T07:34:25.496Z,13.07
2018-12-12T07:36:54.327Z,14.73
2018-12-12T07:39:23.197Z,14.30
2018-12-12T07:41:52.041Z,13.50
2018-12-12T07:44:21.303Z,13.97
2018-12-12T07:46:50.550Z,14.23
2018-12-12T07:49:19.854Z,13.63
2018-12-12T07:51:48.692Z,14.77
2018-12-12T07:54:17.531Z,13.40
2018-12-12T07:56:46.390Z,12.50
2018-12-12T07:59:15.215Z,12.47
2018-12-12T08:01:44.098Z,13.50
2018-12-12T08:04:13.059Z,12.93
2018-12-12T08:06:41.966Z,13.77
2018-12-12T08:09:11.257Z,14.27
2018-12-12T08:11:40.159Z,13.00
2018-12-12T08:14:09.049Z,12.73
2018-12-12T08:16:37.957Z,12.73
2018-12-12T08:19:06.813Z,13.67
2018-12-12T08:21:35.643Z,12.80
2018-12-12T08:24:04.867Z,13.77
2018-12-12T08:26:33.826Z,14.50
2018-12-12T08:29:03.189Z,13.10
2018-12-12T08:31:32.168Z,13.47
2018-12-12T08:34:01.083Z,12.73
2018-12-12T08:36:37.105Z,12.13
2018-12-12T08:39:07.869Z,12.43
2018-12-12T08:41:36.737Z,12.97
2018-12-12T08:44:05.991Z,12.27
2018-12-12T08:46:35.130Z,13.77
2018-12-12T08:49:04.355Z,12.03
2018-12-12T08:51:33.179Z,13.77
2018-12-12T08:54:02.523Z,13.93
2018-12-12T08:56:31.495Z,13.20
2018-12-12T08:59:00.368Z,12.27
2018-12-12T09:01:30.215Z,11.53
2018-12-12T09:03:59.091Z,12.63
2018-12-12T09:07:05.204Z,11.87
2018-12-12T09:09:34.071Z,11.40
2018-12-12T09:12:03.114Z,11.53
2018-12-12T09:14:32.016Z,11.13
2018-12-12T09:17:00.923Z,11.77
2018-12-12T09:19:29.823Z,10.60
2018-12-12T09:21:58.951Z,9.97
2018-12-12T09:24:27.864Z,10.23
2018-12-12T09:26:56.780Z,9.50
2018-12-12T09:29:25.698Z,9.43
2018-12-12T09:31:55.049Z,9.07
2018-12-12T09:34:24.046Z,8.73
2018-12-12T09:36:52.909Z,9.23
2018-12-12T09:39:21.805Z,8.40
2018-12-12T09:41:50.729Z,9.07
2018-12-12T09:44:19.859Z,7.13
2018-12-12T09:46:48.731Z,7.83
2018-12-12T09:49:17.548Z,7.80
2018-12-12T09:51:46.367Z,7.33
2018-12-12T09:54:15.226Z,7.57
2018-12-12T09:56:44.139Z,6.47
2018-12-12T09:59:12.967Z,6.73
2018-12-12T10:01:41.780Z,7.87
2018-12-12T10:04:10.843Z,7.60
2018-12-12T10:06:39.647Z,7.87
2018-12-12T10:09:08.591Z,8.27
2018-12-12T10:11:37.639Z,8.30
2018-12-12T10:14:06.510Z,8.37
2018-12-12T10:16:35.414Z,8.43
2018-12-12T10:19:04.246Z,7.53
2018-12-12T10:21:33.163Z,7.07
2018-12-12T10:24:02.005Z,6.60
2018-12-12T10:26:30.879Z,5.77
2018-12-12T10:29:00.138Z,7.43
2018-12-12T10:31:29.605Z,8.03
2018-12-12T10:33:58.480Z,7.73
2018-12-12T10:36:27.299Z,8.53
2018-12-12T10:38:56.135Z,8.30
2018-12-12T10:41:25.234Z,8.20
2018-12-12T10:43:54.415Z,7.80
2018-12-12T10:46:23.225Z,6.73
2018-12-12T10:48:52.126Z,7.43
2018-12-12T10:51:20.985Z,6.80
2018-12-12T10:53:49.822Z,6.97
2018-12-12T10:56:18.683Z,6.20
2018-12-12T10:58:47.547Z,5.40
2018-12-12T11:01:21.635Z,6.13
2018-12-12T11:03:50.505Z,5.53
2018-12-12T11:06:19.401Z,6.90
2018-12-12T11:08:48.271Z,6.80
2018-12-12T11:11:17.165Z,6.23
2018-12-12T11:13:46.852Z,5.80
2018-12-12T11:16:15.928Z,5.83
2018-12-12T11:18:44.820Z,5.40
2018-12-12T11:21:14.146Z,5.80
2018-12-12T11:23:43.037Z,5.60
2018-12-12T11:26:11.939Z,5.20
2018-12-12T11:28:40.789Z,6.00
2018-12-12T11:31:09.668Z,5.70
2018-12-12T11:33:38.478Z,5.10
2018-12-12T11:36:07.355Z,5.20
2018-12-12T11:38:36.255Z,6.30
2018-12-12T11:41:05.558Z,5.47
2018-12-12T11:43:34.467Z,5.40
2018-12-12T11:46:03.347Z,5.97
2018-12-12T11:48:32.271Z,5.50
2018-12-12T11:51:01.204Z,5.70
2018-12-12T11:53:30.120Z,5.20
2018-12-12T11:55:59.083Z,5.83
2018-12-12T11:58:27.960Z,5.93
2018-12-12T12:00:56.912Z,4.60
2018-12-12T12:03:26.011Z,5.43
2018-12-12T12:05:54.827Z,5.27
2018-12-12T12:08:24.195Z,5.37
2018-12-12T12:10:53.104Z,5.70
2018-12-12T12:13:22.259Z,5.70
2018-12-12T12:15:51.736Z,5.60
2018-12-12T12:18:20.624Z,6.00
2018-12-12T12:20:49.510Z,5.97
2018-12-12T12:23:18.415Z,6.03
2018-12-12T12:25:47.402Z,5.23
2018-12-12T12:28:16.259Z,5.40
2018-12-12T12:30:45.079Z,5.67
2018-12-12T12:33:13.971Z,5.60
2018-12-12T12:35:42.862Z,6.50
2018-12-12T12:38:11.836Z,6.00
2018-12-12T12:40:40.937Z,6.03
2018-12-12T12:43:10.099Z,5.13
2018-12-12T12:45:39.316Z,4.80
2018-12-12T12:48:08.540Z,5.00
2018-12-12T12:50:37.451Z,5.87
2018-12-12T12:53:06.310Z,5.60
2018-12-12T12:55:35.174Z,5.50
2018-12-12T12:58:04.282Z,6.10
2018-12-12T13:00:33.078Z,6.03
2018-12-12T13:03:01.904Z,5.37
2018-12-12T13:05:31.239Z,5.10
2018-12-12T13:08:00.049Z,6.47
2018-12-12T13:10:29.346Z,6.00
2018-12-12T13:12:58.538Z,6.40
2018-12-12T13:15:28.156Z,7.00
2018-12-12T13:17:56.995Z,6.30
2018-12-12T13:20:26.049Z,6.60
2018-12-12T13:22:54.897Z,7.17
2018-12-12T13:25:23.722Z,7.23
2018-12-12T13:27:52.545Z,6.43
2018-12-12T13:30:21.321Z,7.33
2018-12-12T13:32:50.131Z,6.57
2018-12-12T13:35:19.347Z,6.43
2018-12-12T13:37:48.205Z,6.83
2018-12-12T13:40:16.989Z,6.13
2018-12-12T13:42:45.786Z,6.53
2018-12-12T13:45:14.607Z,6.90
2018-12-12T13:47:43.813Z,6.27
2018-12-12T13:50:12.903Z,7.17
2018-12-12T13:52:41.703Z,6.63
2018-12-12T13:55:10.805Z,7.27
2018-12-12T13:57:39.590Z,7.03
2018-12-12T14:00:09.126Z,7.43
2018-12-12T14:02:37.912Z,6.50
2018-12-12T14:05:07.260Z,6.77
2018-12-12T14:07:36.093Z,6.53
2018-12-12T14:10:05.715Z,6.33
2018-12-12T14:12:34.751Z,7.17
2018-12-12T14:15:04.449Z,7.17
2018-12-12T14:17:33.296Z,7.00
2018-12-12T14:20:02.137Z,7.07
2018-12-12T14:22:30.979Z,7.20
2018-12-12T14:25:00.299Z,7.43
2018-12-12T14:27:29.159Z,7.00
2018-12-12T14:29:58.364Z,6.07
2018-12-12T14:32:27.310Z,5.87
2018-12-12T14:34:56.181Z,5.50
2018-12-12T14:37:25.021Z,4.77
2018-12-12T14:39:53.823Z,4.83
2018-12-12T14:42:22.641Z,5.47
2018-12-12T14:44:51.464Z,4.97
2018-12-12T14:47:20.240Z,5.60
2018-12-12T14:49:49.300Z,5.77
2018-12-12T14:52:18.362Z,5.40
2018-12-12T14:54:47.176Z,5.07
2018-12-12T14:57:15.983Z,5.40
2018-12-12T14:59:45.030Z,5.17
2018-12-12T15:02:13.979Z,4.93
2018-12-12T15:04:42.779Z,5.30
2018-12-12T15:07:11.541Z,5.10
2018-12-12T15:09:40.429Z,4.40
2018-12-12T15:12:09.313Z,5.03
2018-12-12T15:14:38.137Z,5.00
2018-12-12T15:17:06.996Z,4.40
2018-12-12T15:19:35.794Z,3.87
2018-12-12T15:22:05.409Z,3.73
2018-12-12T15:24:35.491Z,3.97
2018-12-12T15:27:05.078Z,3.50
2018-12-12T15:29:33.946Z,3.20
2018-12-12T15:32:03.411Z,3.10
2018-12-12T15:34:42.334Z,3.07
2018-12-12T15:37:15.072Z,2.80
2018-12-12T15:39:50.208Z,3.13
2018-12-12T15:42:23.900Z,2.80
2018-12-12T15:44:58.084Z,2.70
2018-12-12T15:47:31.208Z,2.60
2018-12-12T15:50:15.035Z,2.87
2018-12-12T15:52:43.869Z,3.20
2018-12-12T15:55:12.691Z,3.50
2018-12-12T15:57:41.490Z,3.60
2018-12-12T16:00:10.789Z,3.23
2018-12-12T16:02:40.109Z,3.37
2018-12-12T16:05:08.879Z,5.00
2018-12-12T16:07:37.711Z,4.27
2018-12-12T16:10:07.574Z,4.33
2018-12-12T16:12:36.410Z,4.73
2018-12-12T16:15:05.979Z,4.47
2018-12-12T16:17:35.137Z,4.43
2018-12-12T16:20:04.887Z,4.57
2018-12-12T16:22:33.678Z,4.53
2018-12-12T16:25:02.999Z,5.30
2018-12-12T16:27:32.215Z,5.57
2018-12-12T16:30:01.417Z,6.10
2018-12-12T16:32:30.301Z,6.37
2018-12-12T16:34:59.094Z,5.57
2018-12-12T16:37:29.672Z,4.93
2018-12-12T16:39:58.521Z,4.40
2018-12-12T16:42:28.012Z,4.10
2018-12-12T16:44:56.866Z,4.27
2018-12-12T16:47:25.676Z,4.50
2018-12-12T16:49:54.568Z,4.77
2018-12-12T16:52:23.977Z,4.33
2018-12-12T16:54:52.830Z,4.10
2018-12-12T16:57:21.616Z,4.20
2018-12-12T16:59:50.613Z,4.23
2018-12-12T17:02:19.526Z,4.70
2018-12-12T17:04:48.342Z,4.43
2018-12-12T17:07:17.772Z,6.50
2018-12-12T17:09:46.813Z,6.77
2018-12-12T17:12:15.646Z,5.70
2018-12-12T17:14:44.575Z,6.37
2018-12-12T17:17:13.378Z,5.63
2018-12-12T17:19:42.212Z,5.73
2018-12-12T17:22:11.053Z,6.57
2018-12-12T17:24:39.861Z,6.13
2018-12-12T17:27:09.152Z,5.30
2018-12-12T17:29:38.019Z,5.67
2018-12-12T17:32:07.077Z,6.17
2018-12-12T17:34:36.313Z,5.73
2018-12-12T17:37:05.563Z,5.53
2018-12-12T17:39:34.390Z,5.80
2018-12-12T17:42:03.291Z,5.20
2018-12-12T17:44:32.107Z,5.60
2018-12-12T17:47:00.915Z,7.20
2018-12-12T17:49:29.749Z,5.53
2018-12-12T17:51:58.997Z,6.47
2018-12-12T17:54:27.797Z,6.27
2018-12-12T17:56:56.601Z,6.33
2018-12-12T17:59:25.461Z,5.90
2018-12-12T18:01:54.529Z,7.13
2018-12-12T18:04:23.345Z,6.60
2018-12-12T18:06:52.170Z,6.73
2018-12-12T18:09:21.036Z,6.07
2018-12-12T18:11:49.861Z,6.93
2018-12-12T18:14:18.685Z,6.83
2018-12-12T18:16:47.874Z,5.70
2018-12-12T18:19:16.693Z,5.27
2018-12-12T18:21:45.489Z,4.97
2018-12-12T18:24:14.275Z,4.60
2018-12-12T18:26:43.803Z,4.13
2018-12-12T18:29:12.878Z,5.43
2018-12-12T18:31:41.710Z,5.50
2018-12-12T18:34:10.509Z,4.53
2018-12-12T18:36:39.309Z,4.60
2018-12-12T18:39:08.685Z,5.07
2018-12-12T18:41:37.531Z,4.90
2018-12-12T18:44:06.375Z,4.40
2018-12-12T18:46:35.242Z,4.20
2018-12-12T18:49:04.495Z,3.83
2018-12-12T18:51:33.742Z,4.30
2018-12-12T18:54:02.608Z,4.20
2018-12-12T18:56:31.407Z,4.27
2018-12-12T18:59:02.103Z,3.77
2018-12-12T19:01:31.673Z,3.70
2018-12-12T19:04:00.538Z,3.80
2018-12-12T19:06:29.367Z,4.70
2018-12-12T19:08:58.173Z,3.80
2018-12-12T19:11:26.981Z,4.27
2018-12-12T19:13:55.797Z,7.13
2018-12-12T19:16:24.633Z,5.00
2018-12-12T19:18:53.541Z,4.40
2018-12-12T19:21:22.359Z,3.93
2018-12-12T19:23:51.253Z,3.73
2018-12-12T19:26:20.037Z,4.50
2018-12-12T19:28:48.873Z,4.03
2018-12-12T19:31:17.697Z,4.10
2018-12-12T19:33:46.595Z,4.17
2018-12-12T19:36:15.418Z,5.27
2018-12-12T19:38:45.201Z,3.60
2018-12-12T19:41:14.150Z,3.30
2018-12-12T19:43:43.189Z,3.17
2018-12-12T19:46:12.169Z,3.30
2018-12-12T19:48:44.321Z,3.30
2018-12-12T19:51:13.117Z,3.33
2018-12-12T19:53:44.209Z,3.63
2018-12-12T19:56:12.969Z,3.33
2018-12-12T19:58:41.776Z,3.80
2018-12-12T20:01:10.606Z,3.57
2018-12-12T20:03:40.469Z,3.90
2018-12-12T20:06:09.652Z,4.03
2018-12-12T20:08:39.016Z,3.73
2018-12-12T20:11:08.572Z,3.90
2018-12-12T20:13:37.420Z,3.87
2018-12-12T20:16:06.605Z,3.57
2018-12-12T20:18:35.404Z,3.90
2018-12-12T20:21:04.596Z,3.87
2018-12-12T20:23:33.740Z,4.30
2018-12-12T20:26:02.538Z,3.93
2018-12-12T20:28:31.345Z,4.23
2018-12-12T20:31:00.181Z,3.67
2018-12-12T20:33:29.279Z,3.97
2018-12-12T20:35:58.044Z,3.83
2018-12-12T20:38:30.150Z,3.90
2018-12-12T20:40:59.162Z,3.73
2018-12-12T20:43:28.043Z,3.90
2018-12-12T20:45:57.037Z,3.80
2018-12-12T20:48:25.813Z,3.50
2018-12-12T20:50:55.179Z,3.67
2018-12-12T20:53:23.975Z,3.90
2018-12-12T20:55:52.806Z,3.47
2018-12-12T20:58:21.669Z,3.70
2018-12-12T21:00:50.461Z,6.30
2018-12-12T21:03:19.281Z,4.20
2018-12-12T21:05:54.337Z,3.83
2018-12-12T21:08:36.201Z,3.80
2018-12-12T21:11:05.042Z,4.13
2018-12-12T21:13:33.868Z,4.40
2018-12-12T21:16:02.665Z,4.47
2018-12-12T21:18:31.473Z,4.03
2018-12-12T21:21:00.288Z,4.10
2018-12-12T21:23:29.118Z,5.10
2018-12-12T21:25:58.397Z,4.47
2018-12-12T21:28:27.190Z,5.30
2018-12-12T21:30:56.041Z,4.33
2018-12-12T21:33:25.247Z,4.27
2018-12-12T21:35:54.034Z,4.40
2018-12-12T21:38:22.838Z,4.90
2018-12-12T21:40:52.047Z,9.43
2018-12-12T21:43:20.834Z,5.83
2018-12-12T21:45:52.656Z,5.20
2018-12-12T21:48:21.474Z,5.47
2018-12-12T21:50:50.271Z,5.00
2018-12-12T21:53:19.069Z,5.30
2018-12-12T21:55:47.882Z,4.73
2018-12-12T21:58:16.933Z,5.07
2018-12-12T22:00:45.988Z,5.17
2018-12-12T22:03:15.350Z,5.20
2018-12-12T22:05:44.871Z,4.97
2018-12-12T22:08:13.657Z,5.63
2018-12-12T22:10:42.694Z,5.20
2018-12-12T22:13:11.474Z,5.10
2018-12-12T22:15:40.282Z,5.73
2018-12-12T22:18:09.038Z,4.60
2018-12-12T22:20:37.893Z,6.00
2018-12-12T22:23:07.073Z,5.37
2018-12-12T22:25:35.884Z,5.30
2018-12-12T22:28:04.682Z,5.93
2018-12-12T22:30:33.549Z,6.43
2018-12-12T22:33:02.362Z,5.27
2018-12-12T22:35:31.174Z,6.10
2018-12-12T22:37:59.985Z,6.37
2018-12-12T22:40:28.770Z,6.80
2018-12-12T22:42:57.619Z,6.50
2018-12-12T22:45:26.422Z,5.80
2018-12-12T22:47:55.625Z,5.50
2018-12-12T22:50:24.417Z,6.80
2018-12-12T22:52:53.611Z,6.60
2018-12-12T22:55:22.441Z,6.10
2018-12-12T22:57:51.655Z,6.17
2018-12-12T23:00:26.062Z,6.33
2018-12-12T23:02:55.101Z,5.80
2018-12-12T23:05:24.302Z,5.73
2018-12-12T23:07:53.081Z,6.03
2018-12-12T23:10:21.901Z,5.33
2018-12-12T23:12:50.741Z,4.80
2018-12-12T23:15:19.546Z,5.60
2018-12-12T23:17:48.364Z,5.83
2018-12-12T23:20:17.173Z,5.37
2018-12-12T23:22:46.245Z,5.43
2018-12-12T23:25:15.073Z,5.87
2018-12-12T23:27:43.905Z,5.60
2018-12-12T23:30:12.722Z,6.13
2018-12-12T23:32:41.545Z,5.47
2018-12-12T23:35:10.601Z,5.77
2018-12-12T23:37:39.405Z,5.43
2018-12-12T23:40:08.653Z,6.57
2018-12-12T23:42:37.475Z,5.50
2018-12-12T23:45:06.909Z,5.43
2018-12-12T23:47:35.718Z,6.00
2018-12-12T23:50:05.467Z,5.50
2018-12-12T23:52:34.849Z,6.60
2018-12-12T23:55:04.058Z,6.13
2018-12-12T23:57:32.848Z,6.43
